Marseillais 6 — FQSJ — position and weather

sailwx.info

Track history (hours):
 
Tides and Currents Weather Stations Pressure Air Temp Water Temp Dewpoint Dewpoint Depression Visibility Wind Speed Wind Dir Waves Ship Positions

Marseillais 6

Last reported at 2016-Dec-11 03:33 UTC. Time now 2016-Dec-11 04:21 UTC.
Position N 43°26' E 004°54'.

Length 35 m; draft 5 m.

Type: Tug. MMSI: 227016900.

Date/timePositionNaut miles runAvg speedWind from/ knotsBaromVisibWave heightAir tempDewpointWater temp
2016-Dec-11 03:33N 43°26' E 004°54'0 0.0
2016-Dec-11 02:33N 43°26' E 004°54'1 1.0
2016-Dec-11 01:33N 43°25' E 004°53'1 1.1
2016-Dec-11 00:33N 43°26' E 004°54'2 1.9
2016-Dec-10 23:33N 43°24' E 004°53'2 1.9
2016-Dec-10 22:33N 43°26' E 004°54'0 0.0
2016-Dec-10 21:33N 43°26' E 004°54'0 0.0
2016-Dec-10 20:33N 43°26' E 004°54'0 0.0
2016-Dec-10 19:33N 43°26' E 004°54'0 0.0
2016-Dec-10 18:33N 43°26' E 004°54'0 0.0
2016-Dec-10 17:33N 43°26' E 004°54'0 0.0
2016-Dec-10 16:33N 43°26' E 004°54'0 0.0
2016-Dec-10 15:33N 43°26' E 004°54'0 0.0
2016-Dec-10 14:33N 43°26' E 004°54'0 0.0
2016-Dec-10 13:33N 43°26' E 004°54'0 0.0
2016-Dec-10 12:33N 43°26' E 004°54'3 2.3
2016-Dec-10 11:17N 43°25' E 004°50'3 4.0
2016-Dec-10 10:33N 43°26' E 004°54'0 0.0
2016-Dec-10 09:33N 43°26' E 004°54'3 2.5
2016-Dec-10 08:33N 43°24' E 004°56'3 2.8
2016-Dec-10 07:33N 43°24' E 004°60'1 0.7
2016-Dec-10 06:33N 43°24' E 004°59'0 0.0
2016-Dec-10 05:33N 43°24' E 004°59'0 0.0
2016-Dec-10 04:33N 43°24' E 004°59'0 0.0
2016-Dec-10 03:33N 43°24' E 004°59'0 0.0
2016-Dec-10 02:33N 43°24' E 004°59'0 0.0
2016-Dec-10 01:33N 43°24' E 004°59'0 0.0
2016-Dec-10 00:33N 43°24' E 004°59'0 0.0
2016-Dec-09 23:33N 43°24' E 004°59'0 0.0
2016-Dec-09 22:33N 43°24' E 004°59'0 0.0
2016-Dec-09 21:33N 43°24' E 004°59'0 0.0
2016-Dec-09 20:33N 43°24' E 004°59'0 0.0
2016-Dec-09 19:33N 43°24' E 004°59'0 0.0
2016-Dec-09 18:33N 43°24' E 004°59'1 0.7
2016-Dec-09 17:33N 43°24' E 004°60'1 1.0
2016-Dec-09 16:33N 43°23' E 004°59'0 0.5
2016-Dec-09 15:33N 43°24' E 004°59'0 0.0
2016-Dec-09 14:33N 43°24' E 004°59'0 0.4
2016-Dec-09 13:33N 43°24' E 004°59'0 0.4
2016-Dec-09 12:33N 43°24' E 004°59'0 0.0
2016-Dec-09 11:33N 43°24' E 004°59'0 0.0
2016-Dec-09 10:33N 43°24' E 004°59'0 0.0
2016-Dec-09 09:33N 43°24' E 004°59'3 3.3
2016-Dec-09 08:34N 43°24' E 004°55'2 2.0
2016-Dec-09 07:33N 43°25' E 004°52'5 4.9
2016-Dec-09 06:33N 43°23' E 004°59'1 0.5
2016-Dec-09 05:33N 43°24' E 004°59'0 0.0
2016-Dec-09 04:33N 43°24' E 004°59'0 0.0
2016-Dec-09 03:33N 43°24' E 004°59'0 0.0
2016-Dec-09 02:33N 43°24' E 004°59'0 0.0
2016-Dec-09 01:33N 43°24' E 004°59'0 0.0
2016-Dec-09 00:33N 43°24' E 004°59'0 0.0
2016-Dec-08 23:33N 43°24' E 004°59'0 0.0
2016-Dec-08 22:33N 43°24' E 004°59'0 0.0
2016-Dec-08 21:33N 43°24' E 004°59'0 0.0
2016-Dec-08 20:33N 43°24' E 004°59'0 0.0
2016-Dec-08 19:33N 43°24' E 004°59'0 0.0
2016-Dec-08 18:33N 43°24' E 004°59'0 0.0
2016-Dec-08 17:33N 43°24' E 004°59'0 0.0
2016-Dec-08 16:33N 43°24' E 004°59'0 0.0
2016-Dec-08 15:33N 43°24' E 004°59'0 0.0
2016-Dec-08 14:33N 43°24' E 004°59'0 0.0
2016-Dec-08 13:33N 43°24' E 004°59'0 0.0
2016-Dec-08 12:33N 43°24' E 004°59'1 1.1
2016-Dec-08 11:33N 43°24' E 005°00'1 1.1
2016-Dec-08 10:33N 43°24' E 004°59'0 0.0
2016-Dec-08 09:33N 43°24' E 004°59'0 0.0
2016-Dec-08 08:33N 43°24' E 004°59'0 0.0
2016-Dec-08 07:33N 43°24' E 004°59'0 0.0
2016-Dec-08 06:33N 43°24' E 004°59'0 0.0
2016-Dec-08 05:33N 43°24' E 004°59'0 0.0
2016-Dec-08 04:33N 43°24' E 004°59'0 0.0
2016-Dec-08 03:33N 43°24' E 004°59'0 0.0
2016-Dec-08 02:33N 43°24' E 004°59'0 0.0
2016-Dec-08 01:33N 43°24' E 004°59'0 0.0
2016-Dec-08 00:33N 43°24' E 004°59'0 0.0
2016-Dec-07 23:33N 43°24' E 004°59'0 0.0
2016-Dec-07 22:33N 43°24' E 004°59'0 0.0
2016-Dec-07 21:33N 43°24' E 004°59'0 0.0
2016-Dec-07 20:33N 43°24' E 004°59'0 0.0
2016-Dec-07 19:33N 43°24' E 004°59'0 0.0
2016-Dec-07 18:33N 43°24' E 004°59'0 0.0
2016-Dec-07 17:33N 43°24' E 004°59'6 5.9
2016-Dec-07 16:28N 43°27' E 004°51'4 4.0
2016-Dec-07 15:34N 43°24' E 004°54'4 3.5
2016-Dec-07 14:33N 43°24' E 004°59'0 0.0
2016-Dec-07 13:33N 43°24' E 004°59'0 0.0
2016-Dec-07 12:33N 43°24' E 004°59'0 0.0
2016-Dec-07 11:33N 43°24' E 004°59'0 0.0
2016-Dec-07 10:33N 43°24' E 004°59'0 0.0
2016-Dec-07 09:33N 43°24' E 004°59'0 0.0
2016-Dec-07 08:33N 43°24' E 004°59'0 0.0
2016-Dec-07 07:33N 43°24' E 004°59'0 0.0
2016-Dec-07 06:33N 43°24' E 004°59'6 6.0
2016-Dec-07 05:33N 43°25' E 004°51'2 1.7
2016-Dec-07 04:30N 43°24' E 004°53'1 0.9
2016-Dec-07 03:33N 43°25' E 004°54'4 3.8
2016-Dec-07 02:33N 43°24' E 004°59'0 0.0
2016-Dec-07 01:33N 43°24' E 004°59'0 0.0
2016-Dec-07 00:33N 43°24' E 004°59'0 0.0
2016-Dec-06 23:33N 43°24' E 004°59'0 0.0
2016-Dec-06 22:33N 43°24' E 004°59'0 0.0
2016-Dec-06 21:33N 43°24' E 004°59'0 0.0
2016-Dec-06 20:33N 43°24' E 004°59'0 0.0
2016-Dec-06 18:33N 43°24' E 004°59'0 0.0
2016-Dec-06 17:33N 43°24' E 004°59'0 0.0
2016-Dec-06 16:33N 43°24' E 004°59'0 0.0
2016-Dec-06 15:33N 43°24' E 004°59'0 0.0
2016-Dec-06 14:33N 43°24' E 004°59'0 0.0
2016-Dec-06 13:33N 43°24' E 004°59'0 0.0
2016-Dec-06 12:33N 43°24' E 004°59'0 0.0
2016-Dec-06 11:33N 43°24' E 004°59'0 0.0
2016-Dec-06 10:33N 43°24' E 004°59'0 0.0
2016-Dec-06 09:33N 43°24' E 004°59'1 1.3
2016-Dec-06 08:33N 43°24' E 004°57'3 3.2
2016-Dec-06 07:33N 43°26' E 004°54'0 0.0
2016-Dec-06 06:33N 43°26' E 004°54'0 0.0
2016-Dec-06 05:33N 43°26' E 004°54'0 0.0
2016-Dec-06 04:33N 43°26' E 004°54'0 0.0
2016-Dec-06 03:33N 43°26' E 004°54'0 0.0
2016-Dec-06 02:33N 43°26' E 004°54'0 0.0
2016-Dec-06 01:33N 43°26' E 004°54'0 0.0
2016-Dec-06 00:33N 43°26' E 004°54'0 0.0
2016-Dec-05 23:33N 43°26' E 004°54'0 0.0
2016-Dec-05 22:33N 43°26' E 004°54'0 0.0
2016-Dec-05 21:33N 43°26' E 004°54'0 0.0
2016-Dec-05 20:33N 43°26' E 004°54'0 0.0
2016-Dec-05 19:33N 43°26' E 004°54'0 0.0
2016-Dec-05 18:33N 43°26' E 004°54'0 0.0
2016-Dec-05 17:33N 43°26' E 004°54'0 0.0
2016-Dec-05 16:33N 43°26' E 004°54'0 0.0
2016-Dec-05 15:33N 43°26' E 004°54'0 0.0
2016-Dec-05 14:33N 43°26' E 004°54'0 0.0
2016-Dec-05 13:33N 43°26' E 004°54'0 0.0
2016-Dec-05 12:33N 43°26' E 004°54'0 0.0
2016-Dec-05 11:33N 43°26' E 004°54'0 0.0
2016-Dec-05 10:33N 43°26' E 004°54'0 0.0
2016-Dec-05 09:33N 43°26' E 004°54'0 0.0
2016-Dec-05 08:33N 43°26' E 004°54'0 0.0
2016-Dec-05 07:33N 43°26' E 004°54'0 0.0
2016-Dec-05 06:33N 43°26' E 004°54'0 0.0
2016-Dec-05 05:33N 43°26' E 004°54'0 0.0
2016-Dec-05 04:33N 43°26' E 004°54'0 0.0
2016-Dec-05 03:33N 43°26' E 004°54'0 0.0
2016-Dec-05 02:33N 43°26' E 004°54'1 1.3
2016-Dec-05 01:32N 43°24' E 004°53'0 0.1
2016-Dec-05 00:33N 43°24' E 004°53'1 1.3
2016-Dec-04 23:33N 43°26' E 004°54'0 0.0
2016-Dec-04 22:33N 43°26' E 004°54'1 1.0
2016-Dec-04 21:32N 43°25' E 004°53'1 1.4
2016-Dec-04 20:33N 43°25' E 004°51'0 0.3
2016-Dec-04 19:30N 43°25' E 004°51'2 2.5
2016-Dec-04 18:33N 43°26' E 004°54'1 0.8
2016-Dec-04 17:33N 43°25' E 004°53'5 4.8
2016-Dec-04 16:33N 43°24' E 004°59'5 4.6
2016-Dec-04 15:33N 43°25' E 004°53'2 2.1
2016-Dec-04 14:33N 43°25' E 004°51'0 0.3
2016-Dec-04 13:31N 43°25' E 004°51'1 1.5
2016-Dec-04 12:33N 43°24' E 004°53'2 1.7
2016-Dec-04 11:33N 43°26' E 004°54'0 0.0
2016-Dec-04 10:33N 43°26' E 004°54'0 0.0
2016-Dec-04 09:33N 43°26' E 004°54'0 0.0
2016-Dec-04 08:33N 43°26' E 004°54'0 0.0
2016-Dec-04 07:33N 43°26' E 004°54'0 0.0
2016-Dec-04 06:33N 43°26' E 004°54'0 0.0
2016-Dec-04 05:33N 43°26' E 004°54'0 0.0
2016-Dec-04 04:33N 43°26' E 004°54'0 0.0
2016-Dec-04 03:33N 43°26' E 004°54'0 0.0
2016-Dec-04 02:33N 43°26' E 004°54'0 0.0
2016-Dec-04 01:33N 43°26' E 004°54'0 0.0
2016-Dec-04 00:33N 43°26' E 004°54'0 0.0
2016-Dec-03 23:33N 43°26' E 004°54'0 0.0
2016-Dec-03 22:33N 43°26' E 004°54'0 0.0
2016-Dec-03 21:33N 43°26' E 004°54'0 0.0
2016-Dec-03 20:33N 43°26' E 004°54'0 0.0
2016-Dec-03 19:33N 43°26' E 004°54'0 0.0
2016-Dec-03 18:33N 43°26' E 004°54'0 0.0
2016-Dec-03 17:33N 43°26' E 004°54'0 0.0
2016-Dec-03 16:33N 43°26' E 004°54'0 0.0
2016-Dec-03 15:33N 43°26' E 004°54'0 0.0
2016-Dec-03 14:33N 43°26' E 004°54'0 0.0
2016-Dec-03 13:33N 43°26' E 004°54'0 0.0
2016-Dec-03 12:33N 43°26' E 004°54'0 0.0
2016-Dec-03 11:33N 43°26' E 004°54'0 0.0
2016-Dec-03 10:33N 43°26' E 004°54'0 0.0
2016-Dec-03 09:33N 43°26' E 004°54'0 0.0
2016-Dec-03 08:33N 43°26' E 004°54'0 0.0
2016-Dec-03 07:33N 43°26' E 004°54'0 0.0
2016-Dec-03 06:33N 43°26' E 004°54'0 0.0
2016-Dec-03 05:33N 43°26' E 004°54'0 0.0
2016-Dec-03 04:33N 43°26' E 004°54'0 0.0
2016-Dec-03 03:33N 43°26' E 004°54'0 0.0
2016-Dec-03 02:33N 43°26' E 004°54'0 0.0
2016-Dec-03 01:33N 43°26' E 004°54'0 0.0
2016-Dec-03 00:33N 43°26' E 004°54'0 0.0
2016-Dec-02 23:33N 43°26' E 004°54'0 0.0
2016-Dec-02 22:33N 43°26' E 004°54'0 0.0
2016-Dec-02 21:33N 43°26' E 004°54'0 0.0
2016-Dec-02 20:33N 43°26' E 004°54'0 0.4
2016-Dec-02 19:33N 43°26' E 004°53'0 0.4
2016-Dec-02 18:33N 43°26' E 004°54'0 0.0
2016-Dec-02 17:33N 43°26' E 004°54'0 0.0
2016-Dec-02 16:33N 43°26' E 004°54'0 0.0
2016-Dec-02 15:33N 43°26' E 004°54'0 0.0
2016-Dec-02 14:33N 43°26' E 004°54'0 0.0
2016-Dec-02 13:33N 43°26' E 004°54'1 1.0
2016-Dec-02 12:33N 43°25' E 004°53'0 0.2
2016-Dec-02 11:33N 43°25' E 004°53'1 1.1
2016-Dec-02 10:33N 43°26' E 004°54'0 0.0
2016-Dec-02 09:33N 43°26' E 004°54'0 0.0
2016-Dec-02 08:33N 43°26' E 004°54'1 1.0
2016-Dec-02 07:33N 43°25' E 004°53'1 0.7
2016-Dec-02 06:33N 43°25' E 004°54'0 0.3
2016-Dec-02 05:33N 43°26' E 004°54'1 1.0
2016-Dec-02 04:33N 43°25' E 004°53'1 1.0
2016-Dec-02 03:33N 43°26' E 004°54'0 0.0
2016-Dec-02 02:33N 43°26' E 004°54'0 0.0
2016-Dec-02 01:33N 43°26' E 004°54'0 0.0
2016-Dec-02 00:33N 43°26' E 004°54'0 0.0
2016-Dec-01 23:33N 43°26' E 004°54'1 1.1
2016-Dec-01 22:33N 43°25' E 004°53'1 1.1
2016-Dec-01 21:33N 43°26' E 004°54'1 1.3
2016-Dec-01 20:34N 43°24' E 004°53'1 0.7
2016-Dec-01 19:33N 43°24' E 004°54'2 1.6
2016-Dec-01 18:33N 43°26' E 004°54'0 0.0
2016-Dec-01 17:33N 43°26' E 004°54'0 0.0
2016-Dec-01 16:33N 43°26' E 004°54'0 0.0
2016-Dec-01 15:33N 43°26' E 004°54'0 0.0
2016-Dec-01 14:33N 43°26' E 004°54'0 0.0
2016-Dec-01 13:33N 43°26' E 004°54'0 0.0
2016-Dec-01 12:33N 43°26' E 004°54'0 0.0
2016-Dec-01 11:33N 43°26' E 004°54'0 0.0
2016-Dec-01 10:33N 43°26' E 004°54'0 0.0
2016-Dec-01 09:33N 43°26' E 004°54'0 0.0
2016-Dec-01 08:33N 43°26' E 004°54'0 0.0
2016-Dec-01 07:33N 43°26' E 004°54'0 0.0
2016-Dec-01 06:33N 43°26' E 004°54'0 0.0
2016-Dec-01 05:33N 43°26' E 004°54'0 0.0
2016-Dec-01 04:33N 43°26' E 004°54'  
Track history (hours):
 
Tides and Currents Weather Stations Pressure Air Temp Water Temp Dewpoint Dewpoint Depression Visibility Wind Speed Wind Dir Waves Ship Positions

Marseillais 6

Last reported at 2016-Dec-11 03:33 UTC. Time now 2016-Dec-11 04:21 UTC.
Position N 43°26' E 004°54'.

Length 35 m; draft 5 m.

Type: Tug. MMSI: 227016900.

Date/timePositionNaut miles runAvg speedWind from/ knotsBaromVisibWave heightAir tempDewpointWater temp
2016-Dec-11 03:33N 43°26' E 004°54'0 0.0
2016-Dec-11 02:33N 43°26' E 004°54'1 1.0
2016-Dec-11 01:33N 43°25' E 004°53'1 1.1
2016-Dec-11 00:33N 43°26' E 004°54'2 1.9
2016-Dec-10 23:33N 43°24' E 004°53'2 1.9
2016-Dec-10 22:33N 43°26' E 004°54'0 0.0
2016-Dec-10 21:33N 43°26' E 004°54'0 0.0
2016-Dec-10 20:33N 43°26' E 004°54'0 0.0
2016-Dec-10 19:33N 43°26' E 004°54'0 0.0
2016-Dec-10 18:33N 43°26' E 004°54'0 0.0
2016-Dec-10 17:33N 43°26' E 004°54'0 0.0
2016-Dec-10 16:33N 43°26' E 004°54'0 0.0
2016-Dec-10 15:33N 43°26' E 004°54'0 0.0
2016-Dec-10 14:33N 43°26' E 004°54'0 0.0
2016-Dec-10 13:33N 43°26' E 004°54'0 0.0
2016-Dec-10 12:33N 43°26' E 004°54'3 2.3
2016-Dec-10 11:17N 43°25' E 004°50'3 4.0
2016-Dec-10 10:33N 43°26' E 004°54'0 0.0
2016-Dec-10 09:33N 43°26' E 004°54'3 2.5
2016-Dec-10 08:33N 43°24' E 004°56'3 2.8
2016-Dec-10 07:33N 43°24' E 004°60'1 0.7
2016-Dec-10 06:33N 43°24' E 004°59'0 0.0
2016-Dec-10 05:33N 43°24' E 004°59'0 0.0
2016-Dec-10 04:33N 43°24' E 004°59'0 0.0
2016-Dec-10 03:33N 43°24' E 004°59'0 0.0
2016-Dec-10 02:33N 43°24' E 004°59'0 0.0
2016-Dec-10 01:33N 43°24' E 004°59'0 0.0
2016-Dec-10 00:33N 43°24' E 004°59'0 0.0
2016-Dec-09 23:33N 43°24' E 004°59'0 0.0
2016-Dec-09 22:33N 43°24' E 004°59'0 0.0
2016-Dec-09 21:33N 43°24' E 004°59'0 0.0
2016-Dec-09 20:33N 43°24' E 004°59'0 0.0
2016-Dec-09 19:33N 43°24' E 004°59'0 0.0
2016-Dec-09 18:33N 43°24' E 004°59'1 0.7
2016-Dec-09 17:33N 43°24' E 004°60'1 1.0
2016-Dec-09 16:33N 43°23' E 004°59'0 0.5
2016-Dec-09 15:33N 43°24' E 004°59'0 0.0
2016-Dec-09 14:33N 43°24' E 004°59'0 0.4
2016-Dec-09 13:33N 43°24' E 004°59'0 0.4
2016-Dec-09 12:33N 43°24' E 004°59'0 0.0
2016-Dec-09 11:33N 43°24' E 004°59'0 0.0
2016-Dec-09 10:33N 43°24' E 004°59'0 0.0
2016-Dec-09 09:33N 43°24' E 004°59'3 3.3
2016-Dec-09 08:34N 43°24' E 004°55'2 2.0
2016-Dec-09 07:33N 43°25' E 004°52'5 4.9
2016-Dec-09 06:33N 43°23' E 004°59'1 0.5
2016-Dec-09 05:33N 43°24' E 004°59'0 0.0
2016-Dec-09 04:33N 43°24' E 004°59'0 0.0
2016-Dec-09 03:33N 43°24' E 004°59'0 0.0
2016-Dec-09 02:33N 43°24' E 004°59'0 0.0
2016-Dec-09 01:33N 43°24' E 004°59'0 0.0
2016-Dec-09 00:33N 43°24' E 004°59'0 0.0
2016-Dec-08 23:33N 43°24' E 004°59'0 0.0
2016-Dec-08 22:33N 43°24' E 004°59'0 0.0
2016-Dec-08 21:33N 43°24' E 004°59'0 0.0
2016-Dec-08 20:33N 43°24' E 004°59'0 0.0
2016-Dec-08 19:33N 43°24' E 004°59'0 0.0
2016-Dec-08 18:33N 43°24' E 004°59'0 0.0
2016-Dec-08 17:33N 43°24' E 004°59'0 0.0
2016-Dec-08 16:33N 43°24' E 004°59'0 0.0
2016-Dec-08 15:33N 43°24' E 004°59'0 0.0
2016-Dec-08 14:33N 43°24' E 004°59'0 0.0
2016-Dec-08 13:33N 43°24' E 004°59'0 0.0
2016-Dec-08 12:33N 43°24' E 004°59'1 1.1
2016-Dec-08 11:33N 43°24' E 005°00'1 1.1
2016-Dec-08 10:33N 43°24' E 004°59'0 0.0
2016-Dec-08 09:33N 43°24' E 004°59'0 0.0
2016-Dec-08 08:33N 43°24' E 004°59'0 0.0
2016-Dec-08 07:33N 43°24' E 004°59'0 0.0
2016-Dec-08 06:33N 43°24' E 004°59'0 0.0
2016-Dec-08 05:33N 43°24' E 004°59'0 0.0
2016-Dec-08 04:33N 43°24' E 004°59'0 0.0
2016-Dec-08 03:33N 43°24' E 004°59'0 0.0
2016-Dec-08 02:33N 43°24' E 004°59'0 0.0
2016-Dec-08 01:33N 43°24' E 004°59'0 0.0
2016-Dec-08 00:33N 43°24' E 004°59'0 0.0
2016-Dec-07 23:33N 43°24' E 004°59'0 0.0
2016-Dec-07 22:33N 43°24' E 004°59'0 0.0
2016-Dec-07 21:33N 43°24' E 004°59'0 0.0
2016-Dec-07 20:33N 43°24' E 004°59'0 0.0
2016-Dec-07 19:33N 43°24' E 004°59'0 0.0
2016-Dec-07 18:33N 43°24' E 004°59'0 0.0
2016-Dec-07 17:33N 43°24' E 004°59'6 5.9
2016-Dec-07 16:28N 43°27' E 004°51'4 4.0
2016-Dec-07 15:34N 43°24' E 004°54'4 3.5
2016-Dec-07 14:33N 43°24' E 004°59'0 0.0
2016-Dec-07 13:33N 43°24' E 004°59'0 0.0
2016-Dec-07 12:33N 43°24' E 004°59'0 0.0
2016-Dec-07 11:33N 43°24' E 004°59'0 0.0
2016-Dec-07 10:33N 43°24' E 004°59'0 0.0
2016-Dec-07 09:33N 43°24' E 004°59'0 0.0
2016-Dec-07 08:33N 43°24' E 004°59'0 0.0
2016-Dec-07 07:33N 43°24' E 004°59'0 0.0
2016-Dec-07 06:33N 43°24' E 004°59'6 6.0
2016-Dec-07 05:33N 43°25' E 004°51'2 1.7
2016-Dec-07 04:30N 43°24' E 004°53'1 0.9
2016-Dec-07 03:33N 43°25' E 004°54'4 3.8
2016-Dec-07 02:33N 43°24' E 004°59'0 0.0
2016-Dec-07 01:33N 43°24' E 004°59'0 0.0
2016-Dec-07 00:33N 43°24' E 004°59'0 0.0
2016-Dec-06 23:33N 43°24' E 004°59'0 0.0
2016-Dec-06 22:33N 43°24' E 004°59'0 0.0
2016-Dec-06 21:33N 43°24' E 004°59'0 0.0
2016-Dec-06 20:33N 43°24' E 004°59'0 0.0
2016-Dec-06 18:33N 43°24' E 004°59'0 0.0
2016-Dec-06 17:33N 43°24' E 004°59'0 0.0
2016-Dec-06 16:33N 43°24' E 004°59'0 0.0
2016-Dec-06 15:33N 43°24' E 004°59'0 0.0
2016-Dec-06 14:33N 43°24' E 004°59'0 0.0
2016-Dec-06 13:33N 43°24' E 004°59'0 0.0
2016-Dec-06 12:33N 43°24' E 004°59'0 0.0
2016-Dec-06 11:33N 43°24' E 004°59'0 0.0
2016-Dec-06 10:33N 43°24' E 004°59'0 0.0
2016-Dec-06 09:33N 43°24' E 004°59'1 1.3
2016-Dec-06 08:33N 43°24' E 004°57'3 3.2
2016-Dec-06 07:33N 43°26' E 004°54'0 0.0
2016-Dec-06 06:33N 43°26' E 004°54'0 0.0
2016-Dec-06 05:33N 43°26' E 004°54'0 0.0
2016-Dec-06 04:33N 43°26' E 004°54'0 0.0
2016-Dec-06 03:33N 43°26' E 004°54'0 0.0
2016-Dec-06 02:33N 43°26' E 004°54'0 0.0
2016-Dec-06 01:33N 43°26' E 004°54'0 0.0
2016-Dec-06 00:33N 43°26' E 004°54'0 0.0
2016-Dec-05 23:33N 43°26' E 004°54'0 0.0
2016-Dec-05 22:33N 43°26' E 004°54'0 0.0
2016-Dec-05 21:33N 43°26' E 004°54'0 0.0
2016-Dec-05 20:33N 43°26' E 004°54'0 0.0
2016-Dec-05 19:33N 43°26' E 004°54'0 0.0
2016-Dec-05 18:33N 43°26' E 004°54'0 0.0
2016-Dec-05 17:33N 43°26' E 004°54'0 0.0
2016-Dec-05 16:33N 43°26' E 004°54'0 0.0
2016-Dec-05 15:33N 43°26' E 004°54'0 0.0
2016-Dec-05 14:33N 43°26' E 004°54'0 0.0
2016-Dec-05 13:33N 43°26' E 004°54'0 0.0
2016-Dec-05 12:33N 43°26' E 004°54'0 0.0
2016-Dec-05 11:33N 43°26' E 004°54'0 0.0
2016-Dec-05 10:33N 43°26' E 004°54'0 0.0
2016-Dec-05 09:33N 43°26' E 004°54'0 0.0
2016-Dec-05 08:33N 43°26' E 004°54'0 0.0
2016-Dec-05 07:33N 43°26' E 004°54'0 0.0
2016-Dec-05 06:33N 43°26' E 004°54'0 0.0
2016-Dec-05 05:33N 43°26' E 004°54'0 0.0
2016-Dec-05 04:33N 43°26' E 004°54'0 0.0
2016-Dec-05 03:33N 43°26' E 004°54'0 0.0
2016-Dec-05 02:33N 43°26' E 004°54'1 1.3
2016-Dec-05 01:32N 43°24' E 004°53'0 0.1
2016-Dec-05 00:33N 43°24' E 004°53'1 1.3
2016-Dec-04 23:33N 43°26' E 004°54'0 0.0
2016-Dec-04 22:33N 43°26' E 004°54'1 1.0
2016-Dec-04 21:32N 43°25' E 004°53'1 1.4
2016-Dec-04 20:33N 43°25' E 004°51'0 0.3
2016-Dec-04 19:30N 43°25' E 004°51'2 2.5
2016-Dec-04 18:33N 43°26' E 004°54'1 0.8
2016-Dec-04 17:33N 43°25' E 004°53'5 4.8
2016-Dec-04 16:33N 43°24' E 004°59'5 4.6
2016-Dec-04 15:33N 43°25' E 004°53'2 2.1
2016-Dec-04 14:33N 43°25' E 004°51'0 0.3
2016-Dec-04 13:31N 43°25' E 004°51'1 1.5
2016-Dec-04 12:33N 43°24' E 004°53'2 1.7
2016-Dec-04 11:33N 43°26' E 004°54'0 0.0
2016-Dec-04 10:33N 43°26' E 004°54'0 0.0
2016-Dec-04 09:33N 43°26' E 004°54'0 0.0
2016-Dec-04 08:33N 43°26' E 004°54'0 0.0
2016-Dec-04 07:33N 43°26' E 004°54'0 0.0
2016-Dec-04 06:33N 43°26' E 004°54'0 0.0
2016-Dec-04 05:33N 43°26' E 004°54'0 0.0
2016-Dec-04 04:33N 43°26' E 004°54'0 0.0
2016-Dec-04 03:33N 43°26' E 004°54'0 0.0
2016-Dec-04 02:33N 43°26' E 004°54'0 0.0
2016-Dec-04 01:33N 43°26' E 004°54'0 0.0
2016-Dec-04 00:33N 43°26' E 004°54'0 0.0
2016-Dec-03 23:33N 43°26' E 004°54'0 0.0
2016-Dec-03 22:33N 43°26' E 004°54'0 0.0
2016-Dec-03 21:33N 43°26' E 004°54'0 0.0
2016-Dec-03 20:33N 43°26' E 004°54'0 0.0
2016-Dec-03 19:33N 43°26' E 004°54'0 0.0
2016-Dec-03 18:33N 43°26' E 004°54'0 0.0
2016-Dec-03 17:33N 43°26' E 004°54'0 0.0
2016-Dec-03 16:33N 43°26' E 004°54'0 0.0
2016-Dec-03 15:33N 43°26' E 004°54'0 0.0
2016-Dec-03 14:33N 43°26' E 004°54'0 0.0
2016-Dec-03 13:33N 43°26' E 004°54'0 0.0
2016-Dec-03 12:33N 43°26' E 004°54'0 0.0
2016-Dec-03 11:33N 43°26' E 004°54'0 0.0
2016-Dec-03 10:33N 43°26' E 004°54'0 0.0
2016-Dec-03 09:33N 43°26' E 004°54'0 0.0
2016-Dec-03 08:33N 43°26' E 004°54'0 0.0
2016-Dec-03 07:33N 43°26' E 004°54'0 0.0
2016-Dec-03 06:33N 43°26' E 004°54'0 0.0
2016-Dec-03 05:33N 43°26' E 004°54'0 0.0
2016-Dec-03 04:33N 43°26' E 004°54'0 0.0
2016-Dec-03 03:33N 43°26' E 004°54'0 0.0
2016-Dec-03 02:33N 43°26' E 004°54'0 0.0
2016-Dec-03 01:33N 43°26' E 004°54'0 0.0
2016-Dec-03 00:33N 43°26' E 004°54'0 0.0
2016-Dec-02 23:33N 43°26' E 004°54'0 0.0
2016-Dec-02 22:33N 43°26' E 004°54'0 0.0
2016-Dec-02 21:33N 43°26' E 004°54'0 0.0
2016-Dec-02 20:33N 43°26' E 004°54'0 0.4
2016-Dec-02 19:33N 43°26' E 004°53'0 0.4
2016-Dec-02 18:33N 43°26' E 004°54'0 0.0
2016-Dec-02 17:33N 43°26' E 004°54'0 0.0
2016-Dec-02 16:33N 43°26' E 004°54'0 0.0
2016-Dec-02 15:33N 43°26' E 004°54'0 0.0
2016-Dec-02 14:33N 43°26' E 004°54'0 0.0
2016-Dec-02 13:33N 43°26' E 004°54'1 1.0
2016-Dec-02 12:33N 43°25' E 004°53'0 0.2
2016-Dec-02 11:33N 43°25' E 004°53'1 1.1
2016-Dec-02 10:33N 43°26' E 004°54'0 0.0
2016-Dec-02 09:33N 43°26' E 004°54'0 0.0
2016-Dec-02 08:33N 43°26' E 004°54'1 1.0
2016-Dec-02 07:33N 43°25' E 004°53'1 0.7
2016-Dec-02 06:33N 43°25' E 004°54'0 0.3
2016-Dec-02 05:33N 43°26' E 004°54'1 1.0
2016-Dec-02 04:33N 43°25' E 004°53'1 1.0
2016-Dec-02 03:33N 43°26' E 004°54'0 0.0
2016-Dec-02 02:33N 43°26' E 004°54'0 0.0
2016-Dec-02 01:33N 43°26' E 004°54'0 0.0
2016-Dec-02 00:33N 43°26' E 004°54'0 0.0
2016-Dec-01 23:33N 43°26' E 004°54'1 1.1
2016-Dec-01 22:33N 43°25' E 004°53'1 1.1
2016-Dec-01 21:33N 43°26' E 004°54'1 1.3
2016-Dec-01 20:34N 43°24' E 004°53'1 0.7
2016-Dec-01 19:33N 43°24' E 004°54'2 1.6
2016-Dec-01 18:33N 43°26' E 004°54'0 0.0
2016-Dec-01 17:33N 43°26' E 004°54'0 0.0
2016-Dec-01 16:33N 43°26' E 004°54'0 0.0
2016-Dec-01 15:33N 43°26' E 004°54'0 0.0
2016-Dec-01 14:33N 43°26' E 004°54'0 0.0
2016-Dec-01 13:33N 43°26' E 004°54'0 0.0
2016-Dec-01 12:33N 43°26' E 004°54'0 0.0
2016-Dec-01 11:33N 43°26' E 004°54'0 0.0
2016-Dec-01 10:33N 43°26' E 004°54'0 0.0
2016-Dec-01 09:33N 43°26' E 004°54'0 0.0
2016-Dec-01 08:33N 43°26' E 004°54'0 0.0
2016-Dec-01 07:33N 43°26' E 004°54'0 0.0
2016-Dec-01 06:33N 43°26' E 004°54'0 0.0
2016-Dec-01 05:33N 43°26' E 004°54'0 0.0
2016-Dec-01 04:33N 43°26' E 004°54'  

Dump ship's entire track history